createdAt,value
2018-04-17T00:00:43.665Z,9.43
2018-04-17T00:01:44.228Z,9.30
2018-04-17T00:02:45.038Z,9.36
2018-04-17T00:03:45.596Z,9.29
2018-04-17T00:04:46.135Z,9.30
2018-04-17T00:05:46.673Z,9.29
2018-04-17T00:06:47.219Z,9.28
2018-04-17T00:07:47.768Z,9.29
2018-04-17T00:08:48.318Z,9.35
2018-04-17T00:09:48.862Z,9.28
2018-04-17T00:10:49.408Z,9.33
2018-04-17T00:11:49.952Z,9.25
2018-04-17T00:12:50.499Z,9.23
2018-04-17T00:13:51.049Z,9.12
2018-04-17T00:14:51.591Z,9.12
2018-04-17T00:15:52.139Z,9.14
2018-04-17T00:16:52.687Z,9.10
2018-04-17T00:17:53.226Z,9.01
2018-04-17T00:18:53.771Z,8.96
2018-04-17T00:19:54.318Z,8.98
2018-04-17T00:20:54.872Z,9.11
2018-04-17T00:21:55.413Z,9.04
2018-04-17T00:22:55.961Z,9.03
2018-04-17T00:23:56.506Z,8.98
2018-04-17T00:24:57.054Z,8.93
2018-04-17T00:25:57.603Z,8.96
2018-04-17T00:26:58.148Z,8.93
2018-04-17T00:27:58.689Z,8.98
2018-04-17T00:28:59.238Z,8.96
2018-04-17T00:29:59.779Z,8.98
2018-04-17T00:31:00.328Z,8.96
2018-04-17T00:32:00.864Z,8.96
2018-04-17T00:33:01.410Z,8.95
2018-04-17T00:34:01.956Z,8.93
2018-04-17T00:35:02.494Z,9.00
2018-04-17T00:36:03.042Z,8.93
2018-04-17T00:37:03.589Z,8.92
2018-04-17T00:38:04.134Z,8.78
2018-04-17T00:39:04.681Z,8.92
2018-04-17T00:40:05.231Z,8.81
2018-04-17T00:41:05.776Z,8.84
2018-04-17T00:42:06.323Z,8.78
2018-04-17T00:43:06.915Z,8.78
2018-04-17T00:44:07.460Z,8.74
2018-04-17T00:45:08.035Z,8.82
2018-04-17T00:46:08.555Z,8.76
2018-04-17T00:47:09.104Z,8.63
2018-04-17T00:48:09.648Z,8.56
2018-04-17T00:49:10.197Z,8.55
2018-04-17T00:50:10.739Z,8.45
2018-04-17T00:51:11.287Z,8.50
2018-04-17T00:52:11.833Z,8.55
2018-04-17T00:53:12.382Z,8.52
2018-04-17T00:54:12.918Z,8.56
2018-04-17T00:55:13.469Z,8.60
2018-04-17T00:56:14.012Z,8.58
2018-04-17T00:57:14.554Z,8.56
2018-04-17T00:58:15.104Z,8.52
2018-04-17T00:59:15.647Z,8.53
2018-04-17T01:00:16.191Z,8.53
2018-04-17T01:01:16.737Z,8.48
2018-04-17T01:02:17.285Z,8.59
2018-04-17T01:03:17.827Z,8.48
2018-04-17T01:04:18.371Z,8.48
2018-04-17T01:05:18.915Z,8.52
2018-04-17T01:06:19.465Z,8.52
2018-04-17T01:07:20.008Z,8.53
2018-04-17T01:08:20.555Z,8.56
2018-04-17T01:09:21.094Z,8.50
2018-04-17T01:10:21.644Z,8.55
2018-04-17T01:11:22.193Z,8.48
2018-04-17T01:12:22.743Z,8.45
2018-04-17T01:13:23.283Z,8.48
2018-04-17T01:14:23.826Z,8.38
2018-04-17T01:15:24.371Z,8.41
2018-04-17T01:16:24.906Z,8.31
2018-04-17T01:17:25.453Z,8.37
2018-04-17T01:18:25.989Z,8.35
2018-04-17T01:19:26.537Z,8.40
2018-04-17T01:20:27.081Z,8.48
2018-04-17T01:21:27.625Z,8.33
2018-04-17T01:22:28.172Z,8.30
2018-04-17T01:23:28.723Z,8.35
2018-04-17T01:24:29.266Z,8.34
2018-04-17T01:25:29.808Z,8.41
2018-04-17T01:26:30.345Z,8.34
2018-04-17T01:27:30.889Z,8.40
2018-04-17T01:28:31.463Z,8.25
2018-04-17T01:29:31.995Z,8.25
2018-04-17T01:30:32.538Z,8.31
2018-04-17T01:31:33.075Z,8.35
2018-04-17T01:32:33.624Z,8.28
2018-04-17T01:33:34.166Z,8.27
2018-04-17T01:34:34.714Z,8.28
2018-04-17T01:35:35.258Z,8.27
2018-04-17T01:36:35.804Z,8.23
2018-04-17T01:37:36.345Z,8.16
2018-04-17T01:38:36.892Z,8.16
2018-04-17T01:39:37.439Z,8.09
2018-04-17T01:40:37.988Z,8.17
2018-04-17T01:41:38.529Z,8.09
2018-04-17T01:42:39.079Z,8.13
2018-04-17T01:43:39.619Z,8.13
2018-04-17T01:44:40.166Z,8.07
2018-04-17T01:45:40.704Z,8.07
2018-04-17T01:46:41.254Z,8.09
2018-04-17T01:47:41.799Z,8.06
2018-04-17T01:48:42.344Z,8.12
2018-04-17T01:49:42.893Z,8.16
2018-04-17T01:50:43.436Z,8.15
2018-04-17T01:51:43.984Z,8.10
2018-04-17T01:52:44.526Z,8.20
2018-04-17T01:53:45.074Z,8.20
2018-04-17T01:54:45.622Z,8.15
2018-04-17T01:55:46.167Z,8.02
2018-04-17T01:56:46.705Z,8.09
2018-04-17T01:57:47.256Z,8.19
2018-04-17T01:58:47.795Z,8.10
2018-04-17T01:59:48.341Z,8.04
2018-04-17T02:00:48.885Z,8.07
2018-04-17T02:01:49.434Z,7.98
2018-04-17T02:02:49.974Z,8.04
2018-04-17T02:03:50.526Z,7.98
2018-04-17T02:04:51.065Z,8.07
2018-04-17T02:05:51.612Z,8.02
2018-04-17T02:06:52.157Z,8.06
2018-04-17T02:07:52.703Z,8.01
2018-04-17T02:08:53.248Z,7.99
2018-04-17T02:09:53.796Z,8.01
2018-04-17T02:10:54.336Z,7.98
2018-04-17T02:11:54.880Z,7.89
2018-04-17T02:12:55.423Z,7.95
2018-04-17T02:13:55.969Z,8.02
2018-04-17T02:14:56.508Z,7.86
2018-04-17T02:15:57.052Z,7.92
2018-04-17T02:16:57.594Z,7.92
2018-04-17T02:17:58.142Z,7.97
2018-04-17T02:18:58.680Z,7.92
2018-04-17T02:19:59.224Z,7.81
2018-04-17T02:20:59.775Z,7.86
2018-04-17T02:22:00.317Z,7.84
2018-04-17T02:23:00.865Z,7.81
2018-04-17T02:24:01.408Z,7.81
2018-04-17T02:25:01.948Z,7.76
2018-04-17T02:26:02.491Z,7.80
2018-04-17T02:27:03.027Z,7.69
2018-04-17T02:28:03.578Z,7.73
2018-04-17T02:29:04.117Z,7.66
2018-04-17T02:30:04.668Z,7.72
2018-04-17T02:31:05.212Z,7.73
2018-04-17T02:32:05.745Z,7.72
2018-04-17T02:33:06.293Z,7.76
2018-04-17T02:34:06.841Z,7.73
2018-04-17T02:35:07.380Z,7.76
2018-04-17T02:36:07.931Z,7.70
2018-04-17T02:37:08.467Z,7.66
2018-04-17T02:38:09.016Z,7.72
2018-04-17T02:39:09.564Z,7.69
2018-04-17T02:40:10.107Z,7.74
2018-04-17T02:41:10.654Z,7.79
2018-04-17T02:42:11.196Z,7.69
2018-04-17T02:43:11.740Z,7.64
2018-04-17T02:44:12.288Z,7.63
2018-04-17T02:45:12.827Z,7.64
2018-04-17T02:46:13.372Z,7.51
2018-04-17T02:47:13.908Z,7.58
2018-04-17T02:48:14.454Z,7.55
2018-04-17T02:49:14.991Z,7.55
2018-04-17T02:50:15.538Z,7.57
2018-04-17T02:51:16.085Z,7.53
2018-04-17T02:52:16.629Z,7.53
2018-04-17T02:53:17.178Z,7.47
2018-04-17T02:54:17.724Z,7.51
2018-04-17T02:55:18.271Z,7.37
2018-04-17T02:56:18.808Z,7.40
2018-04-17T02:57:19.358Z,7.42
2018-04-17T02:58:19.903Z,7.36
2018-04-17T02:59:20.441Z,7.45
2018-04-17T03:00:20.988Z,7.36
2018-04-17T03:01:21.531Z,7.39
2018-04-17T03:02:22.077Z,7.36
2018-04-17T03:03:22.623Z,7.33
2018-04-17T03:04:23.168Z,7.36
2018-04-17T03:05:23.709Z,7.28
2018-04-17T03:06:24.248Z,7.25
2018-04-17T03:07:24.793Z,7.24
2018-04-17T03:08:25.335Z,7.29
2018-04-17T03:09:25.880Z,7.28
2018-04-17T03:10:26.423Z,7.33
2018-04-17T03:11:26.970Z,7.21
2018-04-17T03:12:27.515Z,7.29
2018-04-17T03:13:28.061Z,7.21
2018-04-17T03:14:28.608Z,7.21
2018-04-17T03:15:29.151Z,7.18
2018-04-17T03:16:29.700Z,7.12
2018-04-17T03:17:30.237Z,7.14
2018-04-17T03:18:30.785Z,7.17
2018-04-17T03:19:31.328Z,7.07
2018-04-17T03:20:31.869Z,7.07
2018-04-17T03:21:32.414Z,7.02
2018-04-17T03:22:32.953Z,7.00
2018-04-17T03:23:33.500Z,7.03
2018-04-17T03:24:34.091Z,7.02
2018-04-17T03:25:34.587Z,6.97
2018-04-17T03:26:35.130Z,7.03
2018-04-17T03:27:35.676Z,7.04
2018-04-17T03:28:36.220Z,6.99
2018-04-17T03:29:36.765Z,7.02
2018-04-17T03:30:37.316Z,7.02
2018-04-17T03:31:37.856Z,6.97
2018-04-17T03:32:38.401Z,7.03
2018-04-17T03:33:38.940Z,7.03
2018-04-17T03:34:39.489Z,7.00
2018-04-17T03:35:40.036Z,7.03
2018-04-17T03:36:40.575Z,6.97
2018-04-17T03:37:41.114Z,6.88
2018-04-17T03:38:41.663Z,6.97
2018-04-17T03:39:42.206Z,6.92
2018-04-17T03:40:42.743Z,6.96
2018-04-17T03:41:43.290Z,6.86
2018-04-17T03:42:43.838Z,6.88
2018-04-17T03:43:44.388Z,6.86
2018-04-17T03:44:44.927Z,6.86
2018-04-17T03:45:45.464Z,6.79
2018-04-17T03:46:46.011Z,6.75
2018-04-17T03:47:46.556Z,6.82
2018-04-17T03:48:47.096Z,6.79
2018-04-17T03:49:47.645Z,6.75
2018-04-17T03:50:48.189Z,6.79
2018-04-17T03:51:48.730Z,6.79
2018-04-17T03:52:49.266Z,6.82
2018-04-17T03:53:49.813Z,6.79
2018-04-17T03:54:50.351Z,6.76
2018-04-17T03:55:50.895Z,6.78
2018-04-17T03:56:51.437Z,6.85
2018-04-17T03:57:51.983Z,6.76
2018-04-17T03:58:52.521Z,6.70
2018-04-17T03:59:53.070Z,6.75
2018-04-17T04:00:53.610Z,6.67
2018-04-17T04:01:54.150Z,6.61
2018-04-17T04:02:54.696Z,6.70
2018-04-17T04:03:55.235Z,6.66
2018-04-17T04:04:55.775Z,6.68
2018-04-17T04:05:56.324Z,6.63
2018-04-17T04:06:56.866Z,6.67
2018-04-17T04:07:57.412Z,6.64
2018-04-17T04:08:57.958Z,6.67
2018-04-17T04:09:58.501Z,6.66
2018-04-17T04:10:59.051Z,6.55
2018-04-17T04:11:59.599Z,6.61
2018-04-17T04:13:00.144Z,6.67
2018-04-17T04:14:00.689Z,6.61
2018-04-17T04:15:01.234Z,6.60
2018-04-17T04:16:01.774Z,6.60
2018-04-17T04:17:02.326Z,6.63
2018-04-17T04:18:02.871Z,6.63
2018-04-17T04:19:03.416Z,6.66
2018-04-17T04:20:03.963Z,6.52
2018-04-17T04:21:04.509Z,6.55
2018-04-17T04:22:05.053Z,6.63
2018-04-17T04:23:05.594Z,6.52
2018-04-17T04:24:06.147Z,6.50
2018-04-17T04:25:06.690Z,6.55
2018-04-17T04:26:07.233Z,6.48
2018-04-17T04:27:07.780Z,6.46
2018-04-17T04:28:08.323Z,6.42
2018-04-17T04:29:08.871Z,6.48
2018-04-17T04:30:09.418Z,6.40
2018-04-17T04:31:09.963Z,6.52
2018-04-17T04:32:10.511Z,6.49
2018-04-17T04:33:11.055Z,6.46
2018-04-17T04:34:11.607Z,6.49
2018-04-17T04:35:12.157Z,6.40
2018-04-17T04:36:12.707Z,6.48
2018-04-17T04:37:13.255Z,6.50
2018-04-17T04:38:13.804Z,6.48
2018-04-17T04:39:14.352Z,6.48
2018-04-17T04:40:14.895Z,6.46
2018-04-17T04:41:15.436Z,6.49
2018-04-17T04:42:15.985Z,6.46
2018-04-17T04:43:16.541Z,6.50
2018-04-17T04:44:17.098Z,6.43
2018-04-17T04:45:17.637Z,6.42
2018-04-17T04:46:18.186Z,6.49
2018-04-17T04:47:18.733Z,6.43
2018-04-17T04:48:19.282Z,6.52
2018-04-17T04:49:19.838Z,6.52
2018-04-17T04:50:20.379Z,6.55
2018-04-17T04:51:20.931Z,6.63
2018-04-17T04:52:21.477Z,6.68
2018-04-17T04:53:22.025Z,6.66
2018-04-17T04:54:22.570Z,6.64
2018-04-17T04:55:23.116Z,6.63
2018-04-17T04:56:23.665Z,6.75
2018-04-17T04:57:24.213Z,6.78
2018-04-17T04:58:24.759Z,6.79
2018-04-17T04:59:25.311Z,6.81
2018-04-17T05:00:25.866Z,6.82
2018-04-17T05:01:26.411Z,6.94
2018-04-17T05:02:26.962Z,7.00
2018-04-17T05:03:27.520Z,7.00
2018-04-17T05:04:28.072Z,7.06
2018-04-17T05:05:28.620Z,7.14
2018-04-17T05:06:29.167Z,7.21
2018-04-17T05:07:29.719Z,7.21
2018-04-17T05:08:30.268Z,7.33
2018-04-17T05:09:30.822Z,7.27
2018-04-17T05:10:31.374Z,7.45
2018-04-17T05:11:31.912Z,7.43
2018-04-17T05:12:32.463Z,7.47
2018-04-17T05:13:33.007Z,7.50
2018-04-17T05:14:33.551Z,7.55
2018-04-17T05:15:34.104Z,7.58
2018-04-17T05:16:34.665Z,7.61
2018-04-17T05:17:35.207Z,7.81
2018-04-17T05:18:35.763Z,7.99
2018-04-17T05:19:36.355Z,8.19
2018-04-17T05:20:36.933Z,8.23
2018-04-17T05:21:37.481Z,8.55
2018-04-17T05:22:38.069Z,8.59
2018-04-17T05:23:38.596Z,8.60
2018-04-17T05:24:39.148Z,8.85
2018-04-17T05:25:39.703Z,8.89
2018-04-17T05:26:40.254Z,9.10
2018-04-17T05:27:40.805Z,9.29
2018-04-17T05:28:41.357Z,9.71
2018-04-17T05:29:41.912Z,9.91
2018-04-17T05:30:42.468Z,10.13
2018-04-17T05:31:43.021Z,10.49
2018-04-17T05:32:43.570Z,10.78
2018-04-17T05:33:44.121Z,10.85
2018-04-17T05:34:44.694Z,10.90
2018-04-17T05:35:45.230Z,11.16
2018-04-17T05:36:45.803Z,11.52
2018-04-17T05:37:46.391Z,11.88
2018-04-17T05:38:46.923Z,12.25
2018-04-17T05:39:47.481Z,12.27
2018-04-17T05:40:48.037Z,12.09
2018-04-17T05:41:48.592Z,12.04
2018-04-17T05:42:49.232Z,12.10
2018-04-17T05:43:49.784Z,12.47
2018-04-17T05:44:50.345Z,12.72
2018-04-17T05:45:50.921Z,13.02
2018-04-17T05:46:51.480Z,13.36
2018-04-17T05:47:52.063Z,13.60
2018-04-17T05:48:52.598Z,13.77
2018-04-17T05:49:53.155Z,14.11
2018-04-17T05:50:53.718Z,14.25
2018-04-17T05:51:54.272Z,14.60
2018-04-17T05:52:54.831Z,14.85
2018-04-17T05:53:55.391Z,14.96
2018-04-17T05:54:55.997Z,15.06
2018-04-17T05:55:56.625Z,15.18
2018-04-17T05:56:57.119Z,15.46
2018-04-17T05:57:57.675Z,15.65
2018-04-17T05:58:58.238Z,15.87
2018-04-17T05:59:58.797Z,16.17
2018-04-17T06:00:59.360Z,16.58
2018-04-17T06:01:59.924Z,16.72
2018-04-17T06:03:00.483Z,16.86
2018-04-17T06:04:01.048Z,16.96
2018-04-17T06:05:01.614Z,16.72
2018-04-17T06:06:02.221Z,16.45
2018-04-17T06:07:02.782Z,16.43
2018-04-17T06:08:03.342Z,16.66
2018-04-17T06:09:03.908Z,16.94
2018-04-17T06:10:04.473Z,17.05
2018-04-17T06:11:05.088Z,17.26
2018-04-17T06:12:05.640Z,17.34
2018-04-17T06:13:06.205Z,17.30
2018-04-17T06:14:06.771Z,17.45
2018-04-17T06:15:07.335Z,17.39
2018-04-17T06:16:07.898Z,16.98
2018-04-17T06:17:08.468Z,16.90
2018-04-17T06:18:09.032Z,16.91
2018-04-17T06:19:09.608Z,17.34
2018-04-17T06:20:10.171Z,17.63
2018-04-17T06:21:10.744Z,17.72
2018-04-17T06:22:11.306Z,18.01
2018-04-17T06:23:11.876Z,18.35
2018-04-17T06:24:12.440Z,18.63
2018-04-17T06:25:13.006Z,18.77
2018-04-17T06:26:13.575Z,18.92
2018-04-17T06:27:14.137Z,18.95
2018-04-17T06:28:14.712Z,19.09
2018-04-17T06:29:15.274Z,19.12
2018-04-17T06:30:15.858Z,19.00
2018-04-17T06:31:16.416Z,19.12
2018-04-17T06:32:16.979Z,19.31
2018-04-17T06:33:17.548Z,19.33
2018-04-17T06:34:18.111Z,19.14
2018-04-17T06:35:18.787Z,19.33
2018-04-17T06:36:19.353Z,19.48
2018-04-17T06:37:19.922Z,19.62
2018-04-17T06:38:20.492Z,19.79
2018-04-17T06:39:21.058Z,19.64
2018-04-17T06:40:21.629Z,19.77
2018-04-17T06:41:22.222Z,19.79
2018-04-17T06:42:22.768Z,19.79
2018-04-17T06:43:23.332Z,19.79
2018-04-17T06:44:23.903Z,19.73
2018-04-17T06:45:24.477Z,19.87
2018-04-17T06:46:25.048Z,19.80
2018-04-17T06:47:25.665Z,19.80
2018-04-17T06:48:26.183Z,19.81
2018-04-17T06:49:26.756Z,19.89
2018-04-17T06:50:27.334Z,20.13
2018-04-17T06:51:27.893Z,20.50
2018-04-17T06:52:28.503Z,20.65
2018-04-17T06:53:29.059Z,20.73
2018-04-17T06:54:29.632Z,20.87
2018-04-17T06:55:30.194Z,20.78
2018-04-17T06:56:30.766Z,20.78
2018-04-17T06:57:31.334Z,20.82
2018-04-17T06:58:31.907Z,20.67
2018-04-17T06:59:32.473Z,20.78
2018-04-17T07:00:33.044Z,21.07
2018-04-17T07:01:33.614Z,21.28
2018-04-17T07:02:34.186Z,21.49
2018-04-17T07:03:34.756Z,21.64
2018-04-17T07:04:35.376Z,21.83
2018-04-17T07:05:35.938Z,21.96
2018-04-17T07:06:36.552Z,22.23
2018-04-17T07:07:37.177Z,22.07
2018-04-17T07:08:37.746Z,21.86
2018-04-17T07:09:38.316Z,21.79
2018-04-17T07:10:38.977Z,21.75
2018-04-17T07:11:39.614Z,22.17
2018-04-17T07:12:40.117Z,22.03
2018-04-17T07:13:40.679Z,21.92
2018-04-17T07:14:41.252Z,21.79
2018-04-17T07:15:41.834Z,21.75
2018-04-17T07:16:42.402Z,21.91
2018-04-17T07:17:42.971Z,22.05
2018-04-17T07:18:43.549Z,22.10
2018-04-17T07:19:44.120Z,22.23
2018-04-17T07:20:44.693Z,22.14
2018-04-17T07:21:45.279Z,22.03
2018-04-17T07:22:45.858Z,21.99
2018-04-17T07:23:46.438Z,21.86
2018-04-17T07:24:47.001Z,21.93
2018-04-17T07:25:47.596Z,21.96
2018-04-17T07:26:48.162Z,22.10
2018-04-17T07:27:48.735Z,22.44
2018-04-17T07:28:49.310Z,22.69
2018-04-17T07:29:49.884Z,22.84
2018-04-17T07:30:50.456Z,22.95
2018-04-17T07:31:51.021Z,22.83
2018-04-17T07:32:51.599Z,22.69
2018-04-17T07:33:52.180Z,22.60
2018-04-17T07:34:52.762Z,22.72
2018-04-17T07:35:53.317Z,22.65
2018-04-17T07:36:53.902Z,22.55
2018-04-17T07:37:54.466Z,22.44
2018-04-17T07:38:55.074Z,22.57
2018-04-17T07:39:55.616Z,22.63
2018-04-17T07:40:56.184Z,22.57
2018-04-17T07:41:56.756Z,22.94
2018-04-17T07:42:57.325Z,22.76
2018-04-17T07:43:57.897Z,22.84
2018-04-17T07:44:58.464Z,22.84
2018-04-17T07:45:59.037Z,23.25
2018-04-17T07:46:59.610Z,23.28
2018-04-17T07:48:00.185Z,23.58
2018-04-17T07:49:00.760Z,23.96
2018-04-17T07:50:01.346Z,24.32
2018-04-17T07:51:01.908Z,24.69
2018-04-17T07:52:02.497Z,24.83
2018-04-17T07:53:03.067Z,24.84
2018-04-17T07:54:03.627Z,24.84
2018-04-17T07:55:04.197Z,25.01
2018-04-17T07:56:04.774Z,25.13
2018-04-17T07:57:05.342Z,25.24
2018-04-17T07:58:05.969Z,24.99
2018-04-17T07:59:06.529Z,25.04
2018-04-17T08:00:07.152Z,25.13
2018-04-17T08:01:07.689Z,25.24
2018-04-17T08:02:08.326Z,25.51
2018-04-17T08:03:08.861Z,25.41
2018-04-17T08:04:09.440Z,25.21
2018-04-17T08:05:10.012Z,25.06
2018-04-17T08:06:10.588Z,25.02
2018-04-17T08:07:11.160Z,25.28
2018-04-17T08:08:11.724Z,25.41
2018-04-17T08:09:12.318Z,25.43
2018-04-17T08:10:12.987Z,25.78
2018-04-17T08:11:13.621Z,25.90
2018-04-17T08:12:14.293Z,25.75
2018-04-17T08:13:14.856Z,25.53
2018-04-17T08:14:15.507Z,25.41
2018-04-17T08:15:16.109Z,25.46
2018-04-17T08:16:16.728Z,25.35
2018-04-17T08:17:17.367Z,25.44
2018-04-17T08:18:17.948Z,25.33
2018-04-17T08:19:18.516Z,25.35
2018-04-17T08:20:19.094Z,25.41
2018-04-17T08:21:19.670Z,25.54
2018-04-17T08:22:20.245Z,25.47
2018-04-17T08:23:20.820Z,25.47
2018-04-17T08:24:21.400Z,25.51
2018-04-17T08:25:21.976Z,25.20
2018-04-17T08:26:22.547Z,25.48
2018-04-17T08:27:23.110Z,25.58
2018-04-17T08:28:23.677Z,25.69
2018-04-17T08:29:24.247Z,25.88
2018-04-17T08:30:25.005Z,25.81
2018-04-17T08:31:25.553Z,25.54
2018-04-17T08:32:26.118Z,25.66
2018-04-17T08:33:26.680Z,25.90
2018-04-17T08:34:27.254Z,25.95
2018-04-17T08:35:27.830Z,25.95
2018-04-17T08:36:28.401Z,25.68
2018-04-17T08:37:28.977Z,26.03
2018-04-17T08:38:29.556Z,25.91
2018-04-17T08:39:30.141Z,25.72
2018-04-17T08:40:30.706Z,25.91
2018-04-17T08:41:31.270Z,25.99
2018-04-17T08:42:31.850Z,26.05
2018-04-17T08:43:32.430Z,25.87
2018-04-17T08:44:33.017Z,25.75
2018-04-17T08:45:33.588Z,25.98
2018-04-17T08:46:34.169Z,26.25
2018-04-17T08:47:34.794Z,26.51
2018-04-17T08:48:35.363Z,26.41
2018-04-17T08:49:35.933Z,26.36
2018-04-17T08:50:36.507Z,26.28
2018-04-17T08:51:37.087Z,26.32
2018-04-17T08:52:37.667Z,26.62
2018-04-17T08:53:38.243Z,26.58
2018-04-17T08:54:38.822Z,26.32
2018-04-17T08:55:39.411Z,26.21
2018-04-17T08:56:39.981Z,26.39
2018-04-17T08:57:40.578Z,26.40
2018-04-17T08:58:41.163Z,26.47
2018-04-17T08:59:41.740Z,26.66
2018-04-17T09:00:42.320Z,26.51
2018-04-17T09:01:42.895Z,26.44
2018-04-17T09:02:43.466Z,26.41
2018-04-17T09:03:44.041Z,26.36
2018-04-17T09:04:44.609Z,26.21
2018-04-17T09:05:45.196Z,26.02
2018-04-17T09:06:45.788Z,26.37
2018-04-17T09:07:46.366Z,26.51
2018-04-17T09:08:47.353Z,26.55
2018-04-17T09:09:47.940Z,26.85
2018-04-17T09:10:48.519Z,27.17
2018-04-17T09:11:49.168Z,27.02
2018-04-17T09:12:49.676Z,26.87
2018-04-17T09:13:50.255Z,26.85
2018-04-17T09:14:50.830Z,26.99
2018-04-17T09:15:51.414Z,27.33
2018-04-17T09:16:51.988Z,26.98
2018-04-17T09:17:52.713Z,26.78
2018-04-17T09:18:53.342Z,27.00
2018-04-17T09:19:53.916Z,27.02
2018-04-17T09:20:54.487Z,26.95
2018-04-17T09:21:55.078Z,27.29
2018-04-17T09:22:55.642Z,27.58
2018-04-17T09:23:56.296Z,27.51
2018-04-17T09:24:56.805Z,27.61
2018-04-17T09:25:57.380Z,27.86
2018-04-17T09:26:57.955Z,27.58
2018-04-17T09:27:58.525Z,27.43
2018-04-17T09:28:59.109Z,27.78
2018-04-17T09:29:59.699Z,27.86
2018-04-17T09:31:00.276Z,27.55
2018-04-17T09:32:00.847Z,27.32
2018-04-17T09:33:01.426Z,27.23
2018-04-17T09:34:02.006Z,27.42
2018-04-17T09:35:02.570Z,27.30
2018-04-17T09:36:03.173Z,27.28
2018-04-17T09:37:03.716Z,27.35
2018-04-17T09:38:04.291Z,27.50
2018-04-17T09:39:04.876Z,27.86
2018-04-17T09:40:05.442Z,27.62
2018-04-17T09:41:06.023Z,27.77
2018-04-17T09:42:06.598Z,28.07
2018-04-17T09:43:07.164Z,28.29
2018-04-17T09:44:07.741Z,28.36
2018-04-17T09:45:08.322Z,28.65
2018-04-17T09:46:08.896Z,28.96
2018-04-17T09:47:09.463Z,28.91
2018-04-17T09:48:10.029Z,28.78
2018-04-17T09:49:10.601Z,28.77
2018-04-17T09:50:11.223Z,28.65
2018-04-17T09:51:11.798Z,27.89
2018-04-17T09:52:12.375Z,27.93
2018-04-17T09:53:12.949Z,28.07
2018-04-17T09:54:13.530Z,28.03
2018-04-17T09:55:14.095Z,28.22
2018-04-17T09:56:14.670Z,28.38
2018-04-17T09:57:15.244Z,28.55
2018-04-17T09:58:15.816Z,28.54
2018-04-17T09:59:16.392Z,28.45
2018-04-17T10:00:16.981Z,28.48
2018-04-17T10:01:17.552Z,28.48
2018-04-17T10:02:18.130Z,28.42
2018-04-17T10:03:18.703Z,28.29
2018-04-17T10:04:19.279Z,28.08
2018-04-17T10:05:19.865Z,27.89
2018-04-17T10:06:20.450Z,27.67
2018-04-17T10:07:21.021Z,27.54
2018-04-17T10:08:21.596Z,27.39
2018-04-17T10:09:22.180Z,27.48
2018-04-17T10:10:22.754Z,27.52
2018-04-17T10:11:23.328Z,27.68
2018-04-17T10:12:23.902Z,27.96
2018-04-17T10:13:24.483Z,27.98
2018-04-17T10:14:25.064Z,27.96
2018-04-17T10:15:25.642Z,27.88
2018-04-17T10:16:26.227Z,27.88
2018-04-17T10:17:26.843Z,27.62
2018-04-17T10:18:27.599Z,27.63
2018-04-17T10:19:28.168Z,27.67
2018-04-17T10:20:28.744Z,27.85
2018-04-17T10:21:29.315Z,27.99
2018-04-17T10:22:29.930Z,27.86
2018-04-17T10:23:30.458Z,27.98
2018-04-17T10:24:31.023Z,27.98
2018-04-17T10:25:31.609Z,27.96
2018-04-17T10:26:32.181Z,27.89
2018-04-17T10:27:32.765Z,27.92
2018-04-17T10:28:33.336Z,27.77
2018-04-17T10:29:33.911Z,27.89
2018-04-17T10:30:34.485Z,27.86
2018-04-17T10:31:35.056Z,27.89
2018-04-17T10:32:35.662Z,27.81
2018-04-17T10:33:36.192Z,27.78
2018-04-17T10:34:36.773Z,27.78
2018-04-17T10:35:37.351Z,27.77
2018-04-17T10:36:37.939Z,27.80
2018-04-17T10:53:59.493Z,26.77
2018-04-17T10:55:00.072Z,27.03
2018-04-17T10:56:00.664Z,27.40
2018-04-17T10:57:01.242Z,27.47
2018-04-17T10:58:01.817Z,27.42
2018-04-17T10:59:02.415Z,27.52
2018-04-17T11:00:03.021Z,27.29
2018-04-17T11:01:03.575Z,27.37
2018-04-17T11:02:04.162Z,27.63
2018-04-17T11:03:04.743Z,27.99
2018-04-17T11:04:05.327Z,28.27
2018-04-17T11:05:05.906Z,28.47
2018-04-17T11:06:06.498Z,28.22
2018-04-17T11:07:07.081Z,27.93
2018-04-17T11:08:07.665Z,28.04
2018-04-17T11:09:08.238Z,28.05
2018-04-17T11:10:08.842Z,27.99
2018-04-17T11:11:09.395Z,27.81
2018-04-17T11:12:09.971Z,27.51
2018-04-17T11:13:10.554Z,27.59
2018-04-17T11:14:11.134Z,27.55
2018-04-17T11:15:11.726Z,27.50
2018-04-17T11:16:12.305Z,27.15
2018-04-17T11:17:12.893Z,26.91
2018-04-17T11:18:13.458Z,26.76
2018-04-17T11:19:14.042Z,26.96
2018-04-17T11:20:14.632Z,27.14
2018-04-17T11:21:15.212Z,27.20
2018-04-17T11:22:15.804Z,27.28
2018-04-17T11:23:16.482Z,27.45
2018-04-17T11:24:16.988Z,27.63
2018-04-17T11:25:17.567Z,27.95
2018-04-17T11:26:18.152Z,28.27
2018-04-17T11:27:18.736Z,28.52
2018-04-17T11:28:19.322Z,28.81
2018-04-17T11:29:19.896Z,29.05
2018-04-17T11:30:20.464Z,29.17
2018-04-17T11:31:21.044Z,29.08
2018-04-17T11:32:21.623Z,29.25
2018-04-17T11:33:22.207Z,29.05
2018-04-17T11:51:59.207Z,30.68
2018-04-17T11:52:59.773Z,30.66
2018-04-17T11:54:00.352Z,30.01
2018-04-17T11:55:00.926Z,29.74
2018-04-17T11:56:01.503Z,29.34
2018-04-17T11:57:02.072Z,29.25
2018-04-17T11:58:02.645Z,29.37
2018-04-17T11:59:03.232Z,29.79
2018-04-17T12:00:03.807Z,30.00
2018-04-17T12:01:04.383Z,29.78
2018-04-17T12:02:04.955Z,29.78
2018-04-17T12:03:05.539Z,29.91
2018-04-17T12:04:06.107Z,29.78
2018-04-17T12:05:06.712Z,29.90
2018-04-17T12:06:07.260Z,29.71
2018-04-17T12:07:07.846Z,29.47
2018-04-17T12:08:08.430Z,29.32
2018-04-17T12:09:08.996Z,29.35
2018-04-17T12:10:09.578Z,29.59
2018-04-17T12:11:10.153Z,29.87
2018-04-17T12:12:10.738Z,30.06
2018-04-17T12:13:11.337Z,30.06
2018-04-17T12:14:11.903Z,29.90
2018-04-17T12:15:12.476Z,29.54
2018-04-17T12:16:13.050Z,29.54
2018-04-17T12:17:13.635Z,29.67
2018-04-17T12:18:14.219Z,29.62
2018-04-17T12:19:14.787Z,29.37
2018-04-17T12:20:15.369Z,29.15
2018-04-17T12:21:15.965Z,29.22
2018-04-17T12:22:16.547Z,29.00
2018-04-17T12:23:17.113Z,29.00
2018-04-17T12:24:17.700Z,29.05
2018-04-17T12:25:18.319Z,29.15
2018-04-17T12:26:18.881Z,29.22
2018-04-17T12:27:19.457Z,29.41
2018-04-17T12:42:10.066Z,31.73
2018-04-17T12:43:10.642Z,32.12
2018-04-17T12:44:11.223Z,32.33
2018-04-17T12:45:11.804Z,32.11
2018-04-17T12:46:12.388Z,31.79
2018-04-17T12:47:12.962Z,31.61
2018-04-17T12:48:13.546Z,31.68
2018-04-17T12:49:14.125Z,31.69
2018-04-17T12:50:14.705Z,31.54
2018-04-17T12:51:15.282Z,31.52
2018-04-17T12:52:15.867Z,31.39
2018-04-17T12:53:16.441Z,31.52
2018-04-17T12:54:17.031Z,31.24
2018-04-17T12:55:17.599Z,31.17
2018-04-17T12:56:18.172Z,31.09
2018-04-17T12:57:18.777Z,31.01
2018-04-17T12:58:19.330Z,31.02
2018-04-17T12:59:19.897Z,31.25
2018-04-17T13:00:20.475Z,31.31
2018-04-17T13:01:21.055Z,31.21
2018-04-17T13:02:21.637Z,31.01
2018-04-17T13:03:22.208Z,31.09
2018-04-17T13:04:22.776Z,30.97
2018-04-17T13:05:23.360Z,30.83
2018-04-17T13:06:23.940Z,30.38
2018-04-17T13:07:24.515Z,30.40
2018-04-17T13:08:25.091Z,30.71
2018-04-17T13:09:25.664Z,30.64
2018-04-17T13:10:26.257Z,31.02
2018-04-17T13:11:26.826Z,31.20
2018-04-17T13:12:27.405Z,31.65
2018-04-17T13:13:27.991Z,31.97
2018-04-17T13:14:28.563Z,31.95
2018-04-17T13:15:29.174Z,32.05
2018-04-17T13:16:29.725Z,32.17
2018-04-17T13:17:30.303Z,32.10
2018-04-17T13:18:30.869Z,32.06
2018-04-17T13:19:31.481Z,31.61
2018-04-17T13:20:32.062Z,31.28
2018-04-17T13:21:32.628Z,31.43
2018-04-17T13:22:33.202Z,31.32
2018-04-17T13:39:54.711Z,31.45
2018-04-17T13:40:55.277Z,31.21
2018-04-17T13:41:55.856Z,30.86
2018-04-17T13:42:56.428Z,30.35
2018-04-17T13:43:57.011Z,30.59
2018-04-17T13:44:57.574Z,30.84
2018-04-17T13:45:58.147Z,31.03
2018-04-17T13:46:58.719Z,31.24
2018-04-17T13:47:59.289Z,30.87
2018-04-17T13:48:59.856Z,31.23
2018-04-17T13:50:00.420Z,31.09
2018-04-17T13:51:00.988Z,31.24
2018-04-17T13:52:01.564Z,31.01
2018-04-17T13:53:02.140Z,31.18
2018-04-17T13:54:02.709Z,31.24
2018-04-17T13:55:03.282Z,31.36
2018-04-17T13:56:03.856Z,31.24
2018-04-17T13:57:04.428Z,31.46
2018-04-17T13:58:05.005Z,31.58
2018-04-17T13:59:05.580Z,31.85
2018-04-17T14:00:06.147Z,32.06
2018-04-17T14:01:06.722Z,31.99
2018-04-17T14:02:07.299Z,32.07
2018-04-17T14:03:08.078Z,32.00
2018-04-17T14:04:08.640Z,32.14
2018-04-17T14:05:09.209Z,31.84
2018-04-17T14:06:09.779Z,31.96
2018-04-17T14:07:10.364Z,31.74
2018-04-17T14:08:10.944Z,31.85
2018-04-17T14:09:11.519Z,32.00
2018-04-17T14:10:12.092Z,32.36
2018-04-17T14:11:12.665Z,32.40
2018-04-17T14:12:13.230Z,32.44
2018-04-17T14:13:13.800Z,32.49
2018-04-17T14:14:14.360Z,32.24
2018-04-17T14:32:51.324Z,32.15